Time;durP1;ratioP1;P1;durP2;ratioP2;P2;SDS_P1;SDS_P2;PMS_P1;PMS_P2;Temp;Humidity;BMP_temperature;BMP_pressure;BME280_temperature;BME280_humidity;BME280_pressure;Samples;Min_cycle;Max_cycle;Signal;HPM_P1;HPM_P2
2021/01/11 00:01:06;;;;;;;;;;;4.40;93.60;;;;;;4998454;28;19949;-88
2021/01/11 00:03:32;;;;;;;;;;;4.50;93.60;;;;;;4999115;28;19914;-88
2021/01/11 00:05:57;;;;;;;;;;;4.40;93.70;;;;;;5011485;28;20012;-88
2021/01/11 00:08:23;;;;;;;;;;;4.40;93.70;;;;;;5028919;28;19916;-89
2021/01/11 00:10:50;;;;;;;;;;;4.40;93.70;;;;;;5001169;28;19969;-87
2021/01/11 00:13:15;;;;;;;;;;;4.50;93.60;;;;;;5015592;28;19921;-88
2021/01/11 00:15:41;;;;;;;;;;;4.40;93.70;;;;;;5018050;28;19898;-88
2021/01/11 00:18:06;;;;;;;;;;;4.50;93.70;;;;;;5013731;28;19913;-88
2021/01/11 00:20:32;;;;;;;;;;;4.50;93.70;;;;;;5023663;28;19913;-89
2021/01/11 00:22:57;;;;;;;;;;;4.40;93.70;;;;;;5027499;28;19910;-89
2021/01/11 00:25:23;;;;;;;;;;;4.40;93.80;;;;;;5009458;28;19940;-89
2021/01/11 00:27:48;;;;;;;;;;;4.40;93.80;;;;;;4986572;28;19902;-88
2021/01/11 00:30:14;;;;;;;;;;;4.40;93.80;;;;;;5002842;28;19928;-88
2021/01/11 00:32:40;;;;;;;;;;;4.40;93.80;;;;;;4986426;28;19906;-90
2021/01/11 00:35:06;;;;;;;;;;;4.40;93.80;;;;;;4984684;28;19918;-88
2021/01/11 00:37:33;;;;;;;;;;;4.40;93.90;;;;;;4976024;28;20018;-87
2021/01/11 00:39:58;;;;;;;;;;;4.40;93.80;;;;;;4984752;28;19910;-85
2021/01/11 00:42:24;;;;;;;;;;;4.40;93.80;;;;;;4955469;28;20017;-87
2021/01/11 00:44:49;;;;;;;;;;;4.40;93.80;;;;;;4975563;28;19924;-86
2021/01/11 00:47:15;;;;;;;;;;;4.40;93.70;;;;;;4978804;28;19914;-86
2021/01/11 00:49:41;;;;;;;;;;;4.40;93.80;;;;;;4979662;28;19917;-86
2021/01/11 00:52:06;;;;;;;;;;;4.40;93.80;;;;;;4979036;28;20287;-86
2021/01/11 00:54:32;;;;;;;;;;;4.40;93.80;;;;;;4968424;28;19918;-88
2021/01/11 00:56:57;;;;;;;;;;;4.40;93.80;;;;;;4973972;28;19911;-87
2021/01/11 00:59:25;;;;;;;;;;;4.40;93.90;;;;;;4987527;28;19998;-87
2021/01/11 01:01:51;;;;;;;;;;;4.30;93.90;;;;;;4978283;28;19918;-87
2021/01/11 01:04:17;;;;;;;;;;;4.30;93.90;;;;;;4985815;28;20011;-87
2021/01/11 01:06:43;;;;;;;;;;;4.30;94.00;;;;;;4983288;28;20356;-87
2021/01/11 01:09:08;;;;;;;;;;;4.30;94.00;;;;;;4974176;28;19961;-87
2021/01/11 01:11:38;;;;;;;;;;;4.30;94.00;;;;;;4984125;28;20006;-87
2021/01/11 01:14:04;;;;;;;;;;;4.20;94.10;;;;;;4958674;28;19921;-88
2021/01/11 01:16:29;;;;;;;;;;;4.30;94.10;;;;;;4969165;28;19925;-87
2021/01/11 01:18:55;;;;;;;;;;;4.20;94.10;;;;;;4975150;28;19914;-87
2021/01/11 01:21:21;;;;;;;;;;;4.30;94.20;;;;;;4978564;28;20372;-87
2021/01/11 01:23:46;;;;;;;;;;;4.20;94.30;;;;;;4965722;28;19925;-87
2021/01/11 01:26:12;;;;;;;;;;;4.10;94.40;;;;;;5008968;28;19929;-87
2021/01/11 01:28:37;;;;;;;;;;;4.10;94.40;;;;;;4979072;28;20452;-87
2021/01/11 01:31:03;;;;;;;;;;;4.10;94.50;;;;;;4992230;28;19917;-88
2021/01/11 01:33:28;;;;;;;;;;;4.10;94.50;;;;;;4978557;28;20295;-86
2021/01/11 01:35:54;;;;;;;;;;;4.10;94.50;;;;;;5007861;28;19913;-87
2021/01/11 01:38:19;;;;;;;;;;;4.10;94.60;;;;;;4978042;28;19917;-87
2021/01/11 01:40:46;;;;;;;;;;;4.10;94.50;;;;;;4998089;28;19913;-87
2021/01/11 01:43:12;;;;;;;;;;;4.10;94.60;;;;;;4982075;28;19933;-87
2021/01/11 01:45:37;;;;;;;;;;;4.10;94.70;;;;;;5014034;28;20654;-87
2021/01/11 01:48:03;;;;;;;;;;;4.00;94.80;;;;;;4998704;28;19920;-87
2021/01/11 01:50:29;;;;;;;;;;;4.00;94.80;;;;;;4978426;28;19913;-87
2021/01/11 01:52:54;;;;;;;;;;;4.00;94.80;;;;;;4997548;28;20338;-87
2021/01/11 01:55:20;;;;;;;;;;;4.00;94.80;;;;;;4994574;28;19918;-88
2021/01/11 01:57:46;;;;;;;;;;;4.10;94.80;;;;;;4999544;28;19913;-87
2021/01/11 02:00:12;;;;;;;;;;;4.10;94.80;;;;;;4983864;28;19914;-87
2021/01/11 02:02:38;;;;;;;;;;;4.10;94.80;;;;;;4990031;28;20004;-87
2021/01/11 02:05:04;;;;;;;;;;;4.10;94.80;;;;;;4978403;28;19952;-87
2021/01/11 02:07:30;;;;;;;;;;;4.00;94.90;;;;;;4997889;28;19917;-88
2021/01/11 02:10:02;;;;;;;;;;;4.00;94.90;;;;;;4997283;28;19932;-87
2021/01/11 02:12:34;;;;;;;;;;;4.00;95.00;;;;;;4994081;28;20000;-87
2021/01/11 02:15:03;;;;;;;;;;;3.90;95.20;;;;;;5007295;28;19913;-86
2021/01/11 02:17:32;;;;;;;;;;;3.80;95.20;;;;;;4993718;28;19945;-87
2021/01/11 02:20:16;;;;;;;;;;;3.80;95.30;;;;;;4996800;28;19996;-87
2021/01/11 02:22:48;;;;;;;;;;;3.80;95.30;;;;;;4996454;28;19943;-87
2021/01/11 02:25:37;;;;;;;;;;;3.80;95.30;;;;;;4995674;28;19990;-87
2021/01/11 02:28:08;;;;;;;;;;;3.80;95.30;;;;;;5004637;28;19945;-88
2021/01/11 02:30:34;;;;;;;;;;;3.80;95.20;;;;;;4997318;28;20000;-87
2021/01/11 02:33:08;;;;;;;;;;;3.80;95.30;;;;;;5013772;28;19913;-86
2021/01/11 02:35:51;;;;;;;;;;;3.80;95.30;;;;;;5014384;28;19964;-87
2021/01/11 02:38:17;;;;;;;;;;;3.70;95.30;;;;;;4998190;28;19936;-87
2021/01/11 02:40:43;;;;;;;;;;;3.70;95.30;;;;;;4996904;28;20355;-87
2021/01/11 02:43:09;;;;;;;;;;;3.80;95.40;;;;;;5013688;28;19924;-86
2021/01/11 02:45:34;;;;;;;;;;;3.70;95.70;;;;;;4996607;28;20352;-88
2021/01/11 02:48:12;;;;;;;;;;;3.70;95.40;;;;;;4996536;28;20458;-87
2021/01/11 02:51:04;;;;;;;;;;;3.70;95.40;;;;;;4996917;28;20325;-88
2021/01/11 02:53:33;;;;;;;;;;;3.70;95.40;;;;;;5009732;28;19959;-88
2021/01/11 02:56:03;;;;;;;;;;;3.60;95.50;;;;;;5014040;28;19920;-86
2021/01/11 02:58:34;;;;;;;;;;;3.60;95.60;;;;;;4996164;28;19917;-88
2021/01/11 03:01:02;;;;;;;;;;;3.60;95.50;;;;;;4996398;28;19913;-87
2021/01/11 03:03:29;;;;;;;;;;;3.60;95.50;;;;;;4996118;28;19925;-86
2021/01/11 03:05:54;;;;;;;;;;;3.60;95.50;;;;;;4996641;28;19909;-88
2021/01/11 03:08:23;;;;;;;;;;;3.60;95.50;;;;;;5013616;28;20283;-87
2021/01/11 03:10:51;;;;;;;;;;;3.60;95.50;;;;;;5013876;28;19914;-87
2021/01/11 03:13:17;;;;;;;;;;;3.60;95.40;;;;;;4995917;28;20004;-87
2021/01/11 03:15:42;;;;;;;;;;;3.70;95.50;;;;;;4980095;28;20334;-88
2021/01/11 03:18:08;;;;;;;;;;;3.60;95.40;;;;;;4996108;28;20012;-88
2021/01/11 03:20:33;;;;;;;;;;;3.60;95.50;;;;;;5013307;28;19915;-88
2021/01/11 03:22:59;;;;;;;;;;;3.60;95.50;;;;;;4995345;28;19921;-88
2021/01/11 03:25:24;;;;;;;;;;;3.70;95.50;;;;;;4991035;28;20393;-88
2021/01/11 03:27:50;;;;;;;;;;;3.60;95.40;;;;;;4960033;28;19918;-88
2021/01/11 03:30:15;;;;;;;;;;;3.60;95.40;;;;;;4959958;28;19924;-88
2021/01/11 03:32:41;;;;;;;;;;;3.60;95.40;;;;;;4959495;28;20320;-88
2021/01/11 03:35:06;;;;;;;;;;;3.60;95.40;;;;;;4964861;28;19964;-88
2021/01/11 03:37:32;;;;;;;;;;;3.60;95.40;;;;;;4959958;28;19914;-88
2021/01/11 03:39:57;;;;;;;;;;;3.60;95.40;;;;;;4960507;28;19914;-87
2021/01/11 03:42:23;;;;;;;;;;;3.60;95.30;;;;;;4960100;28;19926;-88
2021/01/11 03:44:49;;;;;;;;;;;3.60;95.30;;;;;;4962260;28;20451;-87
2021/01/11 03:47:14;;;;;;;;;;;3.50;95.50;;;;;;4999497;28;19922;-88
2021/01/11 03:49:40;;;;;;;;;;;3.50;95.60;;;;;;4964923;28;19917;-88
2021/01/11 03:52:05;;;;;;;;;;;3.50;95.70;;;;;;4969626;28;19917;-87
2021/01/11 03:54:31;;;;;;;;;;;3.50;95.80;;;;;;4982663;28;19918;-88
2021/01/11 03:56:56;;;;;;;;;;;3.40;95.80;;;;;;4966082;28;19913;-87
2021/01/11 03:59:22;;;;;;;;;;;3.40;96.00;;;;;;4969170;28;19914;-87
2021/01/11 04:01:48;;;;;;;;;;;3.30;96.10;;;;;;4981996;28;20011;-87
2021/01/11 04:04:13;;;;;;;;;;;3.30;96.30;;;;;;4965805;28;20017;-88
2021/01/11 04:06:39;;;;;;;;;;;3.30;96.30;;;;;;4982128;28;19982;-88
2021/01/11 04:09:05;;;;;;;;;;;3.30;96.40;;;;;;4973692;28;19914;-88
2021/01/11 04:11:30;;;;;;;;;;;3.30;96.40;;;;;;4995158;28;19918;-88
2021/01/11 04:13:56;;;;;;;;;;;3.30;96.40;;;;;;4959385;28;19961;-88
2021/01/11 04:16:21;;;;;;;;;;;3.30;96.40;;;;;;4963113;28;19914;-87
2021/01/11 04:18:47;;;;;;;;;;;3.30;96.50;;;;;;4962921;28;19949;-87
2021/01/11 04:21:13;;;;;;;;;;;3.30;96.40;;;;;;4982478;28;19921;-88
2021/01/11 04:23:39;;;;;;;;;;;3.30;96.40;;;;;;4965973;28;19930;-87
2021/01/11 04:26:04;;;;;;;;;;;3.30;96.40;;;;;;4982223;28;20017;-88
2021/01/11 04:28:30;;;;;;;;;;;3.30;96.70;;;;;;4981217;28;20336;-89
2021/01/11 04:30:55;;;;;;;;;;;3.30;96.50;;;;;;4971426;28;19913;-88
2021/01/11 04:33:21;;;;;;;;;;;3.40;96.40;;;;;;4973789;28;20017;-89
2021/01/11 04:35:46;;;;;;;;;;;3.40;96.40;;;;;;4967957;28;19977;-89
2021/01/11 04:38:12;;;;;;;;;;;3.50;96.30;;;;;;4955934;28;19982;-88
2021/01/11 04:40:37;;;;;;;;;;;3.40;96.30;;;;;;4976659;28;19925;-88
2021/01/11 04:43:02;;;;;;;;;;;3.30;96.30;;;;;;4988733;28;19922;-88
2021/01/11 04:45:28;;;;;;;;;;;3.30;96.40;;;;;;4981989;28;19914;-88
2021/01/11 04:47:58;;;;;;;;;;;3.30;96.50;;;;;;4982635;28;20344;-89
2021/01/11 04:50:24;;;;;;;;;;;3.30;96.50;;;;;;4969132;28;19920;-89
2021/01/11 04:52:50;;;;;;;;;;;3.30;96.50;;;;;;4965348;28;19925;-88
2021/01/11 04:55:15;;;;;;;;;;;3.20;96.50;;;;;;4966059;28;19914;-89
2021/01/11 04:57:51;;;;;;;;;;;3.20;96.60;;;;;;4977180;28;20004;-87
2021/01/11 05:00:22;;;;;;;;;;;3.10;96.80;;;;;;4978601;28;19914;-89
2021/01/11 05:02:50;;;;;;;;;;;3.10;97.00;;;;;;4978954;28;20000;-87
2021/01/11 05:05:17;;;;;;;;;;;3.10;97.10;;;;;;4979330;28;19914;-88
2021/01/11 05:07:42;;;;;;;;;;;3.10;97.10;;;;;;4978209;28;19992;-88
2021/01/11 05:10:11;;;;;;;;;;;3.10;97.10;;;;;;4946869;28;19950;-88
2021/01/11 05:12:36;;;;;;;;;;;3.20;97.00;;;;;;4971545;28;19914;-89
2021/01/11 05:15:15;;;;;;;;;;;3.20;97.00;;;;;;4960793;28;19914;-88
2021/01/11 05:17:44;;;;;;;;;;;3.20;97.00;;;;;;4971827;28;19910;-88
2021/01/11 05:20:11;;;;;;;;;;;3.20;96.90;;;;;;4965680;28;19936;-88
2021/01/11 05:22:36;;;;;;;;;;;3.30;97.00;;;;;;4978369;28;19928;-88
2021/01/11 05:25:12;;;;;;;;;;;3.20;96.90;;;;;;4979800;28;20008;-88
2021/01/11 05:27:37;;;;;;;;;;;3.30;97.00;;;;;;4997925;28;19909;-88
2021/01/11 05:30:03;;;;;;;;;;;3.30;97.00;;;;;;4968366;28;20013;-89
2021/01/11 05:32:29;;;;;;;;;;;3.30;97.00;;;;;;4998003;28;19964;-89
2021/01/11 05:34:54;;;;;;;;;;;3.30;97.10;;;;;;4983464;28;19914;-88
2021/01/11 05:37:36;;;;;;;;;;;3.30;97.10;;;;;;5001791;28;19920;-88
2021/01/11 05:40:06;;;;;;;;;;;3.20;97.20;;;;;;5015150;28;19932;-88
2021/01/11 05:42:31;;;;;;;;;;;3.30;97.20;;;;;;4997616;28;19924;-89
2021/01/11 05:45:09;;;;;;;;;;;3.30;97.10;;;;;;4998176;28;20411;-89
2021/01/11 05:47:35;;;;;;;;;;;3.30;97.30;;;;;;4997847;28;19913;-87
2021/01/11 05:50:07;;;;;;;;;;;3.30;97.30;;;;;;5015410;28;19960;-88
2021/01/11 05:52:33;;;;;;;;;;;3.30;97.30;;;;;;4981534;28;19968;-88
2021/01/11 05:55:17;;;;;;;;;;;3.30;97.30;;;;;;4981359;28;19914;-89
2021/01/11 05:57:51;;;;;;;;;;;3.30;97.40;;;;;;5011077;28;20017;-89
2021/01/11 06:00:17;;;;;;;;;;;3.40;97.50;;;;;;5014907;28;19910;-88
2021/01/11 06:02:42;;;;;;;;;;;3.30;97.40;;;;;;4997123;28;19929;-89
2021/01/11 06:05:08;;;;;;;;;;;3.30;97.40;;;;;;4974238;28;19918;-88
2021/01/11 06:07:34;;;;;;;;;;;3.40;97.40;;;;;;4989941;28;20004;-89
2021/01/11 06:10:00;;;;;;;;;;;3.30;97.40;;;;;;4980493;28;20298;-89
2021/01/11 06:12:26;;;;;;;;;;;3.40;97.40;;;;;;4977739;28;19918;-88
2021/01/11 06:14:52;;;;;;;;;;;3.40;97.50;;;;;;4994901;28;19962;-89
2021/01/11 06:17:18;;;;;;;;;;;3.40;97.50;;;;;;5014264;28;19924;-88
2021/01/11 06:19:44;;;;;;;;;;;3.40;97.50;;;;;;4989213;28;19917;-89
2021/01/11 06:22:10;;;;;;;;;;;3.40;97.40;;;;;;4978605;28;19922;-87
2021/01/11 06:24:35;;;;;;;;;;;3.40;97.40;;;;;;4989655;28;19925;-88
2021/01/11 06:27:14;;;;;;;;;;;3.40;97.30;;;;;;4973704;28;19922;-87
2021/01/11 06:29:45;;;;;;;;;;;3.50;97.40;;;;;;4981527;28;19925;-89
2021/01/11 06:32:18;;;;;;;;;;;3.40;97.40;;;;;;4993557;28;19917;-88
2021/01/11 06:34:43;;;;;;;;;;;3.50;97.40;;;;;;4970941;28;20252;-90
2021/01/11 06:37:19;;;;;;;;;;;3.50;97.40;;;;;;4964828;28;19917;-89
2021/01/11 06:39:46;;;;;;;;;;;3.50;97.50;;;;;;4986563;28;20366;-88
2021/01/11 06:42:11;;;;;;;;;;;3.50;97.40;;;;;;4950904;28;19930;-89
2021/01/11 06:44:38;;;;;;;;;;;3.60;97.30;;;;;;4960782;28;20447;-89
2021/01/11 06:47:04;;;;;;;;;;;3.60;97.20;;;;;;4960198;28;19921;-88
2021/01/11 06:49:30;;;;;;;;;;;3.60;97.30;;;;;;4970451;28;20355;-89
2021/01/11 06:52:09;;;;;;;;;;;3.50;97.30;;;;;;4968298;28;20323;-89
2021/01/11 06:54:41;;;;;;;;;;;3.50;97.40;;;;;;4963393;28;20021;-88
2021/01/11 06:57:12;;;;;;;;;;;3.50;97.30;;;;;;4961904;28;19914;-88
2021/01/11 06:59:38;;;;;;;;;;;3.50;97.30;;;;;;4978827;28;19960;-89
2021/01/11 07:02:17;;;;;;;;;;;3.50;97.30;;;;;;4989359;28;19930;-88
2021/01/11 07:04:44;;;;;;;;;;;3.50;97.40;;;;;;4990049;28;19956;-88
2021/01/11 07:07:15;;;;;;;;;;;3.50;97.40;;;;;;4957289;28;20374;-87
2021/01/11 07:09:48;;;;;;;;;;;3.50;97.40;;;;;;4990951;28;19914;-86
2021/01/11 07:12:17;;;;;;;;;;;3.50;97.50;;;;;;4990166;28;19910;-86
2021/01/11 07:14:53;;;;;;;;;;;3.50;97.40;;;;;;4972704;28;19933;-86
2021/01/11 07:17:37;;;;;;;;;;;3.50;97.40;;;;;;4976635;28;19910;-86
2021/01/11 07:20:03;;;;;;;;;;;3.50;97.40;;;;;;4968032;28;19958;-87
2021/01/11 07:22:29;;;;;;;;;;;3.50;97.40;;;;;;4983119;28;19923;-86
2021/01/11 07:24:54;;;;;;;;;;;3.50;97.40;;;;;;4961155;28;19917;-87
2021/01/11 07:27:20;;;;;;;;;;;3.50;97.40;;;;;;4969866;28;19949;-86
2021/01/11 07:29:46;;;;;;;;;;;3.50;97.40;;;;;;4954161;28;19918;-92
2021/01/11 07:32:11;;;;;;;;;;;3.50;97.30;;;;;;4959300;28;19976;-87
2021/01/11 07:34:38;;;;;;;;;;;3.50;97.30;;;;;;4971642;28;19918;-86
2021/01/11 07:37:03;;;;;;;;;;;3.50;97.40;;;;;;4954585;28;19915;-90
2021/01/11 07:39:30;;;;;;;;;;;3.60;97.40;;;;;;4960997;28;19920;-89
2021/01/11 07:41:57;;;;;;;;;;;3.50;97.40;;;;;;4986725;28;19910;-89
2021/01/11 07:44:22;;;;;;;;;;;3.50;97.50;;;;;;4986549;28;19917;-86
2021/01/11 07:46:55;;;;;;;;;;;3.50;97.40;;;;;;4993414;28;19910;-86
2021/01/11 07:49:21;;;;;;;;;;;3.50;97.40;;;;;;4993499;28;19925;-88
2021/01/11 07:51:47;;;;;;;;;;;3.50;97.40;;;;;;4968384;28;19913;-86
2021/01/11 07:54:15;;;;;;;;;;;3.60;97.40;;;;;;4974267;28;19941;-86
2021/01/11 07:56:40;;;;;;;;;;;3.60;97.30;;;;;;4985338;28;19981;-85
2021/01/11 07:59:06;;;;;;;;;;;3.60;97.30;;;;;;4975772;28;19910;-86
2021/01/11 08:01:33;;;;;;;;;;;3.60;97.20;;;;;;4978170;28;19918;-87
2021/01/11 08:03:58;;;;;;;;;;;3.60;97.30;;;;;;4980411;28;19918;-87
2021/01/11 08:06:24;;;;;;;;;;;3.60;97.20;;;;;;4953835;28;19983;-87
2021/01/11 08:08:51;;;;;;;;;;;3.60;97.20;;;;;;4983034;28;20004;-87
2021/01/11 08:11:17;;;;;;;;;;;3.60;97.20;;;;;;4969186;28;19996;-87
2021/01/11 08:13:42;;;;;;;;;;;3.60;97.20;;;;;;4964971;28;19997;-86
2021/01/11 08:16:12;;;;;;;;;;;3.60;97.20;;;;;;4956281;28;20364;-88
2021/01/11 08:18:39;;;;;;;;;;;3.60;97.20;;;;;;4970573;28;19911;-88
2021/01/11 08:21:05;;;;;;;;;;;3.60;97.10;;;;;;4974322;28;19914;-87
2021/01/11 08:23:31;;;;;;;;;;;3.70;97.00;;;;;;4973306;28;19968;-87
2021/01/11 08:25:56;;;;;;;;;;;3.60;97.00;;;;;;4964086;28;19926;-87
2021/01/11 08:28:22;;;;;;;;;;;3.60;97.10;;;;;;4989627;28;19921;-86
2021/01/11 08:30:48;;;;;;;;;;;3.60;97.10;;;;;;4991952;28;19924;-85
2021/01/11 08:33:13;;;;;;;;;;;3.50;97.10;;;;;;4981482;28;20280;-87
2021/01/11 08:35:39;;;;;;;;;;;3.60;97.20;;;;;;4979674;28;20129;-86
2021/01/11 08:38:08;;;;;;;;;;;3.60;97.20;;;;;;4982559;28;20275;-86
2021/01/11 08:40:34;;;;;;;;;;;3.60;97.20;;;;;;4978630;28;19929;-85
2021/01/11 08:43:23;;;;;;;;;;;3.60;97.20;;;;;;4962274;28;19929;-85
2021/01/11 08:45:52;;;;;;;;;;;3.60;97.10;;;;;;4975395;28;19910;-85
2021/01/11 08:48:24;;;;;;;;;;;3.70;97.00;;;;;;4969546;28;20416;-86
2021/01/11 08:50:52;;;;;;;;;;;3.70;97.00;;;;;;4994879;28;20001;-87
2021/01/11 08:53:18;;;;;;;;;;;3.60;97.00;;;;;;4991811;28;19910;-85
2021/01/11 08:56:04;;;;;;;;;;;3.60;97.10;;;;;;4991366;28;19917;-85
2021/01/11 08:58:33;;;;;;;;;;;3.70;97.00;;;;;;4968264;28;19937;-87
2021/01/11 09:01:08;;;;;;;;;;;3.70;97.00;;;;;;4994743;28;19910;-86
2021/01/11 09:03:40;;;;;;;;;;;3.70;96.90;;;;;;4974715;28;19922;-86
2021/01/11 09:06:05;;;;;;;;;;;3.70;96.90;;;;;;4982906;28;19921;-86
2021/01/11 09:08:31;;;;;;;;;;;3.70;96.90;;;;;;4994201;28;19980;-85
2021/01/11 09:10:56;;;;;;;;;;;3.70;96.80;;;;;;4966347;28;19941;-87
2021/01/11 09:13:25;;;;;;;;;;;3.70;96.80;;;;;;4967297;28;19917;-87
2021/01/11 09:15:51;;;;;;;;;;;3.70;96.90;;;;;;4981320;28;19968;-87
2021/01/11 09:18:17;;;;;;;;;;;3.70;96.80;;;;;;4978236;28;19913;-85
2021/01/11 09:20:44;;;;;;;;;;;3.70;96.70;;;;;;4988985;28;19913;-86
2021/01/11 09:23:10;;;;;;;;;;;3.70;96.80;;;;;;4991355;28;19926;-86
2021/01/11 09:25:36;;;;;;;;;;;3.70;96.90;;;;;;4963698;28;20303;-85
2021/01/11 09:28:03;;;;;;;;;;;3.70;96.80;;;;;;4992852;28;19921;-86
2021/01/11 09:30:29;;;;;;;;;;;3.70;96.70;;;;;;4993913;28;19917;-86
2021/01/11 09:32:55;;;;;;;;;;;3.80;96.70;;;;;;4987932;28;19914;-86
2021/01/11 09:35:21;;;;;;;;;;;3.70;96.80;;;;;;4991536;28;19910;-86
2021/01/11 09:37:46;;;;;;;;;;;3.80;96.70;;;;;;4994368;28;19940;-86
2021/01/11 09:40:12;;;;;;;;;;;3.80;96.70;;;;;;4992041;28;19917;-86
2021/01/11 09:42:38;;;;;;;;;;;3.80;96.70;;;;;;4974718;28;19929;-89
2021/01/11 09:45:06;;;;;;;;;;;3.90;96.70;;;;;;4984252;28;19914;-88
2021/01/11 09:47:32;;;;;;;;;;;3.90;96.60;;;;;;4993986;28;20356;-88
2021/01/11 09:49:58;;;;;;;;;;;3.90;96.50;;;;;;4992019;28;19913;-86
2021/01/11 09:52:23;;;;;;;;;;;3.90;96.50;;;;;;4977195;28;19922;-87
2021/01/11 09:54:49;;;;;;;;;;;3.90;96.50;;;;;;4970140;28;19942;-88
2021/01/11 09:57:15;;;;;;;;;;;3.90;96.40;;;;;;4992031;28;19917;-87
2021/01/11 09:59:41;;;;;;;;;;;4.00;96.30;;;;;;4976505;28;19925;-89
2021/01/11 10:02:10;;;;;;;;;;;4.00;96.30;;;;;;4994609;28;19917;-86
2021/01/11 10:04:35;;;;;;;;;;;4.00;96.40;;;;;;4994359;28;19914;-87
2021/01/11 10:07:01;;;;;;;;;;;4.00;96.30;;;;;;4993393;28;19924;-86
2021/01/11 10:09:28;;;;;;;;;;;4.10;96.20;;;;;;4993552;28;20275;-85
2021/01/11 10:12:04;;;;;;;;;;;4.10;96.10;;;;;;4993567;28;20364;-87
2021/01/11 10:14:30;;;;;;;;;;;4.10;96.10;;;;;;4993791;28;20030;-87
2021/01/11 10:16:55;;;;;;;;;;;4.00;96.10;;;;;;4983441;28;20293;-86
2021/01/11 10:19:28;;;;;;;;;;;4.10;96.10;;;;;;4975985;28;19918;-84
2021/01/11 10:21:54;;;;;;;;;;;4.10;96.10;;;;;;4989232;28;19939;-86
2021/01/11 10:24:21;;;;;;;;;;;4.20;96.00;;;;;;4990876;28;20300;-86
2021/01/11 10:26:47;;;;;;;;;;;4.20;96.00;;;;;;4995814;28;19969;-88
2021/01/11 10:29:16;;;;;;;;;;;4.20;96.00;;;;;;4994992;28;19936;-88
2021/01/11 10:31:42;;;;;;;;;;;4.20;95.90;;;;;;4997101;28;20370;-86
2021/01/11 10:34:08;;;;;;;;;;;4.20;95.80;;;;;;4996070;28;19918;-85
2021/01/11 10:36:41;;;;;;;;;;;4.30;95.80;;;;;;4996224;28;20360;-85
2021/01/11 10:39:07;;;;;;;;;;;4.30;95.80;;;;;;4996279;28;19913;-90
2021/01/11 10:41:33;;;;;;;;;;;4.30;95.70;;;;;;4979910;28;20359;-84
2021/01/11 10:43:59;;;;;;;;;;;4.30;95.80;;;;;;4979565;28;19944;-87
2021/01/11 10:46:24;;;;;;;;;;;4.30;95.80;;;;;;4992121;28;20276;-85
2021/01/11 10:48:50;;;;;;;;;;;4.30;95.70;;;;;;4968097;28;19917;-83
2021/01/11 10:51:16;;;;;;;;;;;4.30;95.70;;;;;;4995558;28;20299;-85
2021/01/11 10:53:42;;;;;;;;;;;4.30;95.70;;;;;;4976582;28;19918;-85
2021/01/11 10:56:08;;;;;;;;;;;4.30;95.80;;;;;;4998234;28;20368;-86
2021/01/11 10:58:34;;;;;;;;;;;4.40;95.70;;;;;;5000751;28;20970;-86
2021/01/11 11:01:00;;;;;;;;;;;4.40;95.60;;;;;;4979198;28;19924;-86
2021/01/11 11:03:25;;;;;;;;;;;4.40;95.60;;;;;;4994231;28;19924;-87
2021/01/11 11:05:52;;;;;;;;;;;4.40;95.50;;;;;;4988215;28;19914;-84
2021/01/11 11:08:17;;;;;;;;;;;4.40;95.60;;;;;;5003410;28;19913;-88
2021/01/11 11:10:42;;;;;;;;;;;4.40;95.50;;;;;;5012837;28;19999;-85
2021/01/11 11:13:08;;;;;;;;;;;4.40;95.50;;;;;;4974073;28;19917;-87
2021/01/11 11:15:33;;;;;;;;;;;4.40;95.50;;;;;;5000078;28;20327;-87
2021/01/11 11:17:59;;;;;;;;;;;4.40;95.50;;;;;;4992827;28;19917;-86
2021/01/11 11:20:24;;;;;;;;;;;4.40;95.50;;;;;;4992955;28;20036;-87
2021/01/11 11:22:53;;;;;;;;;;;4.50;95.50;;;;;;4992570;28;19932;-87
2021/01/11 11:25:19;;;;;;;;;;;4.50;95.40;;;;;;4974217;28;19914;-87
2021/01/11 11:27:47;;;;;;;;;;;4.40;95.40;;;;;;5002777;28;19936;-86
2021/01/11 11:30:12;;;;;;;;;;;4.40;95.40;;;;;;4986516;28;19952;-86
2021/01/11 11:32:43;;;;;;;;;;;4.40;95.40;;;;;;5011510;28;19988;-86
2021/01/11 11:35:09;;;;;;;;;;;4.40;95.40;;;;;;4994102;28;19913;-87
2021/01/11 11:37:34;;;;;;;;;;;4.50;95.50;;;;;;4994636;28;19914;-85
2021/01/11 11:40:00;;;;;;;;;;;4.50;95.30;;;;;;5011457;28;19921;-86
2021/01/11 11:42:25;;;;;;;;;;;4.50;95.30;;;;;;5011577;28;19917;-86
2021/01/11 11:44:51;;;;;;;;;;;4.50;95.20;;;;;;4993225;28;19920;-86
2021/01/11 11:47:16;;;;;;;;;;;4.50;95.20;;;;;;5011786;28;19913;-86
2021/01/11 11:49:42;;;;;;;;;;;4.50;95.20;;;;;;4992077;28;20394;-84
2021/01/11 11:52:08;;;;;;;;;;;4.50;95.30;;;;;;4975079;28;19929;-88
2021/01/11 11:54:33;;;;;;;;;;;4.40;95.30;;;;;;4978243;28;19971;-87
2021/01/11 11:56:59;;;;;;;;;;;4.50;95.30;;;;;;5005465;28;20348;-85
2021/01/11 11:59:24;;;;;;;;;;;4.50;95.10;;;;;;4997468;28;19921;-85
2021/01/11 12:01:50;;;;;;;;;;;4.50;95.10;;;;;;4990907;28;19913;-86
2021/01/11 12:04:16;;;;;;;;;;;4.50;95.20;;;;;;4998832;28;19925;-85
2021/01/11 12:06:44;;;;;;;;;;;4.50;95.20;;;;;;5009324;28;19913;-86
2021/01/11 12:09:11;;;;;;;;;;;4.50;95.10;;;;;;4997788;28;20008;-86
2021/01/11 12:11:40;;;;;;;;;;;4.50;95.20;;;;;;5005879;28;19914;-85
2021/01/11 12:14:06;;;;;;;;;;;4.50;95.10;;;;;;5004558;28;19924;-86
2021/01/11 12:16:31;;;;;;;;;;;4.50;95.40;;;;;;4995243;28;19917;-86
2021/01/11 12:18:57;;;;;;;;;;;4.60;95.10;;;;;;4976772;28;19960;-85
2021/01/11 12:21:40;;;;;;;;;;;4.60;95.10;;;;;;4996961;28;19992;-86
2021/01/11 12:24:09;;;;;;;;;;;4.60;95.00;;;;;;4993629;28;20333;-85
2021/01/11 12:26:45;;;;;;;;;;;4.70;94.90;;;;;;4999788;28;19921;-85
2021/01/11 12:29:11;;;;;;;;;;;4.60;94.90;;;;;;4993279;28;20500;-87
2021/01/11 12:31:37;;;;;;;;;;;4.60;94.90;;;;;;4986877;28;20268;-90
2021/01/11 12:34:03;;;;;;;;;;;4.60;94.90;;;;;;4995491;28;19914;-87
2021/01/11 12:36:30;;;;;;;;;;;4.70;94.90;;;;;;4990445;28;19956;-86
2021/01/11 12:38:56;;;;;;;;;;;4.70;94.90;;;;;;4972866;28;20414;-87
2021/01/11 12:41:25;;;;;;;;;;;4.80;94.90;;;;;;4992469;28;19917;-85
2021/01/11 12:43:51;;;;;;;;;;;4.80;94.90;;;;;;4987045;28;19932;-85
2021/01/11 12:46:18;;;;;;;;;;;4.80;94.80;;;;;;4989830;28;19997;-86
2021/01/11 12:48:44;;;;;;;;;;;4.80;94.80;;;;;;5007534;28;19913;-85
2021/01/11 12:51:13;;;;;;;;;;;4.80;94.80;;;;;;5002333;28;19910;-84
2021/01/11 12:53:38;;;;;;;;;;;4.90;94.60;;;;;;4995554;28;19910;-88
2021/01/11 12:56:31;;;;;;;;;;;4.90;94.60;;;;;;4975768;28;20276;-87
2021/01/11 12:58:57;;;;;;;;;;;4.80;94.60;;;;;;4988287;28;20394;-86
2021/01/11 13:01:26;;;;;;;;;;;4.90;94.60;;;;;;4994434;28;19921;-86
2021/01/11 13:03:54;;;;;;;;;;;4.90;94.70;;;;;;4990170;28;19923;-85
2021/01/11 13:06:20;;;;;;;;;;;4.90;94.50;;;;;;4993891;28;19925;-85
2021/01/11 13:08:46;;;;;;;;;;;5.00;94.60;;;;;;4991566;28;19914;-85
2021/01/11 13:11:12;;;;;;;;;;;5.00;94.50;;;;;;4977111;28;19922;-84
2021/01/11 13:13:38;;;;;;;;;;;5.00;94.50;;;;;;4977458;28;19914;-84
2021/01/11 13:16:03;;;;;;;;;;;5.00;94.50;;;;;;4994990;28;20012;-84
2021/01/11 13:18:29;;;;;;;;;;;5.00;94.60;;;;;;4979072;28;19925;-84
2021/01/11 13:20:54;;;;;;;;;;;5.00;94.60;;;;;;4981597;28;19925;-84
2021/01/11 13:23:20;;;;;;;;;;;5.00;94.60;;;;;;4993714;28;20387;-84
2021/01/11 13:25:45;;;;;;;;;;;4.90;94.60;;;;;;4993075;28;19960;-85
2021/01/11 13:28:11;;;;;;;;;;;5.00;94.70;;;;;;4996540;28;19909;-85
2021/01/11 13:30:40;;;;;;;;;;;5.00;94.70;;;;;;4979451;28;20329;-85
2021/01/11 13:33:06;;;;;;;;;;;5.00;94.70;;;;;;4977598;28;20020;-84
2021/01/11 13:35:31;;;;;;;;;;;5.00;94.70;;;;;;5007852;28;20332;-85
2021/01/11 13:37:58;;;;;;;;;;;5.10;94.70;;;;;;4996464;28;19963;-86
2021/01/11 13:40:24;;;;;;;;;;;5.10;94.70;;;;;;4980163;28;19923;-86
2021/01/11 13:42:50;;;;;;;;;;;5.10;94.60;;;;;;4994797;28;20344;-84
2021/01/11 13:45:15;;;;;;;;;;;5.10;94.60;;;;;;4991883;28;19972;-88
2021/01/11 13:47:44;;;;;;;;;;;5.10;94.60;;;;;;4983802;28;20336;-87
2021/01/11 13:50:13;;;;;;;;;;;5.10;94.60;;;;;;5012553;28;20001;-88
2021/01/11 13:52:39;;;;;;;;;;;5.10;94.60;;;;;;5013726;28;20355;-87
2021/01/11 13:55:05;;;;;;;;;;;5.20;94.60;;;;;;4995846;28;19988;-84
2021/01/11 13:57:30;;;;;;;;;;;5.20;94.40;;;;;;4995558;28;19915;-86
2021/01/11 13:59:57;;;;;;;;;;;5.30;94.50;;;;;;4995449;28;19913;-86
2021/01/11 14:02:22;;;;;;;;;;;5.20;94.60;;;;;;4972396;28;19926;-86
2021/01/11 14:04:49;;;;;;;;;;;5.20;94.40;;;;;;4979432;28;19914;-85
2021/01/11 14:07:14;;;;;;;;;;;5.20;94.50;;;;;;4979369;28;19921;-86
2021/01/11 14:09:41;;;;;;;;;;;5.30;94.40;;;;;;4995857;28;19921;-86
2021/01/11 14:12:06;;;;;;;;;;;5.30;94.40;;;;;;4979864;28;20318;-86
2021/01/11 14:14:33;;;;;;;;;;;5.30;94.40;;;;;;4996483;28;19964;-85
2021/01/11 14:16:58;;;;;;;;;;;5.30;94.40;;;;;;4975864;28;19944;-89
2021/01/11 14:19:24;;;;;;;;;;;5.30;94.40;;;;;;5001242;28;19913;-87
2021/01/11 14:21:49;;;;;;;;;;;5.30;94.30;;;;;;4999497;28;19921;-85
2021/01/11 14:24:15;;;;;;;;;;;5.30;94.20;;;;;;4995002;28;20004;-86
2021/01/11 14:26:40;;;;;;;;;;;5.30;94.30;;;;;;4995367;28;19921;-86
2021/01/11 14:29:07;;;;;;;;;;;5.30;94.30;;;;;;4994669;28;19915;-85
2021/01/11 14:31:32;;;;;;;;;;;5.40;94.10;;;;;;4995148;28;20371;-86